Time;durP1;ratioP1;P1;durP2;ratioP2;P2;SDS_P1;SDS_P2;PMS_P1;PMS_P2;Temp;Humidity;BMP_temperature;BMP_pressure;BME280_temperature;BME280_humidity;BME280_pressure;Samples;Min_cycle;Max_cycle;Signal;HPM_P1;HPM_P2
2021/06/09 00:00:21;;;;;;;;;;;13.00;99.90;;;;;;5134115;27;19919;-60
2021/06/09 00:02:47;;;;;;;;;;;13.00;99.90;;;;;;5134117;27;19918;-59
2021/06/09 00:05:13;;;;;;;;;;;13.00;99.90;;;;;;5115565;27;20381;-60
2021/06/09 00:07:39;;;;;;;;;;;13.00;99.90;;;;;;5133162;27;19998;-60
2021/06/09 00:10:05;;;;;;;;;;;13.00;99.90;;;;;;5133342;27;19912;-60
2021/06/09 00:12:32;;;;;;;;;;;13.00;99.90;;;;;;5133838;27;20410;-60
2021/06/09 00:14:59;;;;;;;;;;;13.00;99.90;;;;;;5132568;27;19912;-60
2021/06/09 00:17:25;;;;;;;;;;;12.90;99.90;;;;;;5133212;27;19918;-59
2021/06/09 00:19:51;;;;;;;;;;;12.90;99.90;;;;;;5113157;27;19911;-60
2021/06/09 00:22:17;;;;;;;;;;;12.90;99.90;;;;;;5133703;27;19912;-59
2021/06/09 00:24:45;;;;;;;;;;;12.90;99.90;;;;;;5133724;27;20360;-60
2021/06/09 00:27:11;;;;;;;;;;;12.90;99.90;;;;;;5132496;27;20359;-60
2021/06/09 00:29:36;;;;;;;;;;;12.80;99.90;;;;;;5133512;27;19919;-61
2021/06/09 00:32:03;;;;;;;;;;;12.90;99.90;;;;;;5132877;27;19911;-61
2021/06/09 00:34:29;;;;;;;;;;;12.90;99.90;;;;;;5133889;27;20381;-59
2021/06/09 00:36:55;;;;;;;;;;;12.90;99.90;;;;;;5114991;28;19910;-60
2021/06/09 00:39:20;;;;;;;;;;;12.90;99.90;;;;;;5133424;28;19911;-61
2021/06/09 00:41:46;;;;;;;;;;;12.90;99.90;;;;;;5133266;28;20376;-60
2021/06/09 00:44:13;;;;;;;;;;;13.00;99.90;;;;;;5133089;28;19907;-60
2021/06/09 00:46:39;;;;;;;;;;;13.20;99.90;;;;;;5133232;28;19923;-60
2021/06/09 00:49:05;;;;;;;;;;;13.30;99.90;;;;;;5132602;28;19907;-61
2021/06/09 00:51:31;;;;;;;;;;;13.40;99.90;;;;;;5133465;28;20420;-59
2021/06/09 00:54:01;;;;;;;34.55;16.23;;;13.50;99.90;;;;;;5132934;28;19915;-59
2021/06/09 00:56:27;;;;;;;34.85;17.63;;;13.60;99.90;;;;;;5131129;28;20386;-59
2021/06/09 00:58:53;;;;;;;35.75;17.70;;;13.60;99.90;;;;;;5113067;27;20387;-60
2021/06/09 01:01:22;;;;;;;35.17;19.38;;;13.60;99.90;;;;;;5116335;27;20377;-60
2021/06/09 01:03:48;;;;;;;38.07;18.20;;;13.60;99.90;;;;;;5134983;27;20424;-60
2021/06/09 01:06:14;;;;;;;32.83;17.73;;;13.60;99.90;;;;;;5117425;27;20401;-60
2021/06/09 01:08:42;;;;;;;29.05;17.27;;;13.70;99.90;;;;;;5135623;27;20868;-60
2021/06/09 01:11:11;;;;;;;29.48;16.15;;;13.70;99.90;;;;;;5135622;27;20884;-60
2021/06/09 01:13:37;;;;;;;33.80;17.17;;;13.80;99.90;;;;;;5127955;27;20741;-60
2021/06/09 01:16:04;;;;;;;32.10;16.67;;;13.80;99.90;;;;;;5135463;27;20966;-60
2021/06/09 01:18:30;;;;;;;31.90;16.73;;;13.90;99.90;;;;;;5135303;27;20441;-59
2021/06/09 01:20:57;;;;;;;31.05;16.63;;;13.90;99.90;;;;;;5117424;27;20377;-60
2021/06/09 01:23:24;;;;;;;32.10;17.43;;;14.00;99.90;;;;;;5134231;27;20384;-60
2021/06/09 01:25:50;;;;;;;37.15;18.30;;;14.00;99.90;;;;;;5135211;27;20401;-60
2021/06/09 01:28:16;;;;;;;32.83;16.70;;;14.00;99.90;;;;;;5135365;27;20400;-61
2021/06/09 01:30:42;;;;;;;29.70;16.05;;;14.10;99.90;;;;;;5134981;27;20381;-61
2021/06/09 01:33:08;;;;;;;29.80;14.35;;;14.10;99.90;;;;;;5127865;27;20400;-60
2021/06/09 01:35:35;;;;;;;26.98;16.05;;;14.10;99.90;;;;;;5134262;27;20377;-60
2021/06/09 01:38:01;;;;;;;27.45;16.60;;;14.20;99.90;;;;;;5098776;27;20390;-60
2021/06/09 01:40:27;;;;;;;29.30;15.50;;;14.20;99.90;;;;;;5115658;27;20381;-59
2021/06/09 01:42:54;;;;;;;37.58;19.98;;;14.20;99.90;;;;;;5135422;27;20385;-60
2021/06/09 01:45:25;;;;;;;38.22;18.25;;;14.30;99.90;;;;;;5116245;27;20381;-60
2021/06/09 01:47:52;;;;;;;33.13;17.35;;;14.30;99.90;;;;;;5116598;27;20404;-60
2021/06/09 01:50:18;;;;;;;38.15;18.00;;;14.30;99.90;;;;;;5115798;27;20400;-59
2021/06/09 01:52:46;;;;;;;35.85;18.73;;;14.40;99.90;;;;;;5116727;27;20391;-59
2021/06/09 01:55:13;;;;;;;30.80;16.60;;;14.40;99.90;;;;;;5116162;27;20380;-60
2021/06/09 01:57:39;;;;;;;39.00;18.50;;;14.40;99.90;;;;;;5134081;27;20385;-60
2021/06/09 02:00:14;;;;;;;33.70;19.80;;;14.40;99.90;;;;;;5115574;27;20377;-60
2021/06/09 02:02:40;;;;;;;32.67;18.67;;;14.50;99.90;;;;;;5134696;27;20396;-60
2021/06/09 02:05:07;;;;;;;33.00;19.30;;;14.50;99.90;;;;;;5134446;27;20396;-60
2021/06/09 02:07:37;;;;;;;33.80;18.40;;;14.50;99.90;;;;;;5134680;27;20396;-60
2021/06/09 02:10:11;;;;;;;34.17;18.17;;;14.50;99.90;;;;;;5115988;27;20377;-60
2021/06/09 02:12:40;;;;;;;36.65;17.65;;;14.50;99.90;;;;;;5134271;27;20389;-60
2021/06/09 02:15:07;;;;;;;37.23;18.93;;;14.50;99.90;;;;;;5116168;27;20380;-60
2021/06/09 02:17:33;;;;;;;34.67;17.63;;;14.60;99.90;;;;;;5115342;27;20412;-60
2021/06/09 02:19:59;;;;;;;32.97;19.27;;;14.60;99.90;;;;;;5099337;27;20381;-59
2021/06/09 02:22:25;;;;;;;35.63;18.92;;;14.60;99.90;;;;;;5099041;27;20373;-60
2021/06/09 02:24:51;;;;;;;34.50;18.83;;;14.60;99.90;;;;;;5098297;27;20741;-60
2021/06/09 02:27:17;;;;;;;37.67;20.00;;;14.60;99.90;;;;;;5132882;27;20408;-61
2021/06/09 02:29:43;;;;;;;37.47;19.45;;;14.60;99.90;;;;;;5133547;27;20737;-61
2021/06/09 02:32:09;;;;;;;38.20;19.65;;;14.60;99.90;;;;;;5115444;27;20389;-61
2021/06/09 02:34:36;;;;;;;39.78;21.05;;;14.60;99.90;;;;;;5134110;27;20373;-61
2021/06/09 02:37:03;;;;;;;37.83;20.20;;;14.60;99.90;;;;;;5133893;27;20385;-61
2021/06/09 02:39:29;;;;;;;33.75;18.83;;;14.60;99.90;;;;;;5134184;27;20388;-61
2021/06/09 02:41:55;;;;;;;43.85;21.20;;;14.60;99.90;;;;;;5115498;27;20397;-61
2021/06/09 02:44:21;;;;;;;52.92;22.60;;;14.60;99.90;;;;;;5132967;27;20428;-61
2021/06/09 02:46:55;;;;;;;34.30;19.75;;;14.60;99.90;;;;;;5133273;27;20409;-61
2021/06/09 02:49:23;;;;;;;39.40;20.70;;;14.70;99.90;;;;;;5115491;27;20376;-61
2021/06/09 02:52:00;;;;;;;39.75;19.45;;;14.70;99.90;;;;;;5115543;27;20444;-61
2021/06/09 02:54:55;;;;;;;40.45;22.63;;;14.70;99.90;;;;;;5107388;27;20377;-60
2021/06/09 02:57:28;;;;;;;38.65;21.92;;;14.70;99.90;;;;;;5133465;27;20857;-60
2021/06/09 03:00:24;;;;;;;45.15;23.08;;;14.70;99.90;;;;;;5098408;27;20380;-60
2021/06/09 03:02:54;;;;;;;39.37;21.90;;;14.70;99.90;;;;;;5133308;27;20400;-61
2021/06/09 03:05:20;;;;;;;46.47;23.70;;;14.70;99.90;;;;;;5115662;27;20381;-60
2021/06/09 03:08:15;;;;;;;42.60;24.50;;;14.70;99.90;;;;;;5133415;27;20411;-60
2021/06/09 03:11:09;;;;;;;43.78;23.83;;;14.70;99.90;;;;;;5089782;27;20477;-60
2021/06/09 03:13:55;;;;;;;50.78;26.60;;;14.70;99.90;;;;;;5106363;27;20394;-60
2021/06/09 03:16:33;;;;;;;41.97;25.45;;;14.70;99.90;;;;;;5101646;27;20389;-60
2021/06/09 03:19:04;;;;;;;51.38;27.75;;;14.70;99.90;;;;;;5099447;27;20389;-60
2021/06/09 03:21:47;;;;;;;48.22;28.27;;;14.70;99.90;;;;;;5113280;27;20890;-60
2021/06/09 03:24:21;;;;;;;52.47;27.47;;;14.70;99.90;;;;;;5115012;27;20718;-60
2021/06/09 03:27:00;;;;;;;50.33;27.60;;;14.70;99.90;;;;;;5132195;27;20407;-60
2021/06/09 03:30:03;;;;;;;46.95;25.55;;;14.70;99.90;;;;;;5112184;27;20378;-60
2021/06/09 03:32:32;;;;;;;43.72;24.33;;;14.70;99.90;;;;;;5035684;28;20905;-60
2021/06/09 03:35:09;;;;;;;42.63;24.50;;;14.70;99.90;;;;;;5086097;27;20582;-59
2021/06/09 03:37:38;;;;;;;47.13;25.08;;;14.70;99.90;;;;;;5133108;27;20380;-60
2021/06/09 03:40:05;;;;;;;43.25;24.02;;;14.70;99.90;;;;;;5114053;27;20888;-59
2021/06/09 03:42:33;;;;;;;44.53;23.30;;;14.70;99.90;;;;;;5113751;27;20400;-60
2021/06/09 03:44:59;;;;;;;41.95;23.88;;;14.70;99.90;;;;;;5114592;27;20400;-60
2021/06/09 03:47:26;;;;;;;42.95;23.58;;;14.70;99.90;;;;;;5131807;27;20412;-60
2021/06/09 03:49:52;;;;;;;47.78;24.88;;;14.70;99.90;;;;;;5114676;27;20373;-60
2021/06/09 03:52:19;;;;;;;43.50;23.58;;;14.60;99.90;;;;;;5114370;27;20381;-61
2021/06/09 03:54:50;;;;;;;40.65;22.08;;;14.60;99.90;;;;;;5132334;27;20380;-59
2021/06/09 03:57:16;;;;;;;39.35;21.75;;;14.60;99.90;;;;;;5114426;27;20377;-59
2021/06/09 03:59:46;;;;;;;34.70;20.08;;;14.60;99.90;;;;;;5113425;27;20384;-60
2021/06/09 04:02:12;;;;;;;32.83;19.77;;;14.60;99.90;;;;;;5112963;27;20408;-60
2021/06/09 04:04:38;;;;;;;30.45;18.30;;;14.60;99.90;;;;;;5097188;27;20388;-60
2021/06/09 04:07:05;;;;;;;27.40;18.33;;;14.60;99.90;;;;;;5114359;27;20397;-59
2021/06/09 04:09:31;;;;;;;28.67;17.57;;;14.60;99.90;;;;;;5097193;27;20391;-60
2021/06/09 04:12:00;;;;;;;30.77;18.60;;;14.60;99.90;;;;;;5114132;27;20391;-61
2021/06/09 04:14:34;;;;;;;28.40;14.13;;;14.60;99.90;;;;;;5110312;27;20168;-60
2021/06/09 04:17:04;;;;;;;24.13;13.05;;;14.60;99.90;;;;;;5132939;27;20175;-60
2021/06/09 04:19:30;;;;;;;22.52;13.90;;;14.60;99.90;;;;;;5115054;27;20171;-60
2021/06/09 04:21:56;;;;;;;29.67;17.50;;;14.60;99.90;;;;;;5114797;27;20186;-60
2021/06/09 04:24:22;;;;;;;25.05;15.32;;;14.60;99.90;;;;;;5115221;28;20659;-61
2021/06/09 04:26:48;;;;;;;26.75;16.65;;;14.60;99.90;;;;;;5096329;28;20216;-59
2021/06/09 04:29:15;;;;;;;23.92;15.93;;;14.60;99.90;;;;;;5114033;27;20172;-59
2021/06/09 04:31:41;;;;;;;26.98;17.58;;;14.60;99.90;;;;;;5133461;27;20176;-60
2021/06/09 04:34:07;;;;;;;27.10;16.70;;;14.60;99.90;;;;;;5074429;27;20560;-60
2021/06/09 04:36:33;;;;;;;31.70;18.17;;;14.60;99.90;;;;;;5133573;27;20176;-59
2021/06/09 04:38:59;;;;;;;28.38;15.75;;;14.60;99.90;;;;;;5097610;28;20550;-59
2021/06/09 04:41:26;;;;;;;24.80;13.13;;;14.50;99.90;;;;;;5096240;28;20211;-60
2021/06/09 04:43:53;;;;;;;28.83;15.73;;;14.60;99.90;;;;;;5133731;28;20182;-60
2021/06/09 04:46:19;;;;;;;26.75;15.70;;;14.50;99.90;;;;;;5114638;28;20180;-60
2021/06/09 04:49:03;;;;;;;21.00;13.98;;;14.60;99.90;;;;;;5133848;28;20171;-61
2021/06/09 04:51:36;;;;;;;25.17;13.80;;;14.60;99.90;;;;;;5132530;28;20195;-60
2021/06/09 04:54:04;;;;;;;21.17;11.77;;;14.60;99.90;;;;;;5113432;28;20180;-61
2021/06/09 04:56:34;;;;;;;19.50;10.55;;;14.60;99.90;;;;;;5133483;28;20191;-60
2021/06/09 04:59:02;;;;;;;17.38;9.95;;;14.60;99.90;;;;;;5132993;28;20632;-60
2021/06/09 05:01:28;;;;;;;21.38;10.05;;;14.60;99.90;;;;;;5133743;28;20176;-59
2021/06/09 05:03:55;;;;;;;14.73;8.93;;;14.70;99.90;;;;;;5133132;27;20176;-60
2021/06/09 05:06:22;;;;;;;18.98;12.02;;;14.70;99.90;;;;;;5135471;27;20189;-59
2021/06/09 05:08:48;;;;;;;20.45;12.90;;;14.70;99.90;;;;;;5154083;27;20167;-60
2021/06/09 05:11:17;;;;;;;15.88;8.98;;;14.70;99.90;;;;;;5135508;27;20165;-61
2021/06/09 05:13:43;;;;;;;14.25;8.73;;;14.70;99.90;;;;;;5118972;27;20523;-59
2021/06/09 05:16:12;;;;;;;15.82;8.70;;;14.70;99.90;;;;;;5118705;27;20301;-60
2021/06/09 05:18:42;;;;;;;19.77;8.63;;;14.70;99.90;;;;;;5098738;27;20164;-60
2021/06/09 05:21:08;;;;;;;18.90;8.43;;;14.70;99.90;;;;;;5118831;28;20619;-59
2021/06/09 05:23:40;;;;;;;13.52;7.22;;;14.70;99.90;;;;;;5106881;27;20171;-60
2021/06/09 05:26:06;;;;;;;15.52;8.07;;;14.70;99.90;;;;;;5103449;27;20172;-61
2021/06/09 05:28:34;;;;;;;16.38;8.60;;;14.80;99.90;;;;;;5122527;27;20206;-59
2021/06/09 05:31:00;;;;;;;11.50;7.57;;;14.80;99.90;;;;;;5120383;28;20532;-60
2021/06/09 05:33:27;;;;;;;15.80;7.95;;;14.90;99.90;;;;;;5103257;27;20180;-60
2021/06/09 05:35:54;;;;;;;12.48;7.07;;;14.90;99.90;;;;;;5138049;27;20167;-61
2021/06/09 05:38:20;;;;;;;13.95;8.10;;;14.90;99.90;;;;;;5137227;27;20184;-60
2021/06/09 05:40:47;;;;;;;21.90;8.32;;;15.00;99.90;;;;;;5110598;28;20223;-60
2021/06/09 05:43:18;;;;;;;35.53;8.82;;;15.10;99.90;;;;;;5128492;27;20178;-61
2021/06/09 05:45:44;;;;;;;16.85;7.13;;;15.40;99.90;;;;;;5135863;27;20648;-59
2021/06/09 05:48:10;;;;;;;9.82;6.57;;;15.40;99.90;;;;;;5116969;27;20216;-59
2021/06/09 05:50:36;;;;;;;19.77;6.68;;;15.40;99.90;;;;;;5118235;27;20253;-60
2021/06/09 05:53:04;;;;;;;12.00;7.00;;;15.40;99.90;;;;;;5140514;27;20663;-60
2021/06/09 05:55:31;;;;;;;12.55;6.60;;;15.50;99.90;;;;;;5138914;27;20969;-60
2021/06/09 05:58:02;;;;;;;12.90;6.80;;;15.50;99.90;;;;;;5145356;27;20616;-59
2021/06/09 06:00:28;;;;;;;8.32;5.60;;;15.60;99.90;;;;;;5124769;27;20655;-60
2021/06/09 06:02:54;;;;;;;14.15;5.82;;;15.60;99.90;;;;;;5145677;27;20485;-59
2021/06/09 06:05:20;;;;;;;11.60;6.15;;;15.70;99.90;;;;;;5119870;27;20172;-60
2021/06/09 06:07:46;;;;;;;;;;;15.70;99.90;;;;;;5136097;27;20043;-61
2021/06/09 06:10:12;;;;;;;;;;;15.80;99.90;;;;;;5130852;27;20380;-60
2021/06/09 06:12:38;;;;;;;;;;;15.90;99.90;;;;;;5117248;27;20367;-60
2021/06/09 06:15:05;;;;;;;;;;;16.00;99.90;;;;;;5118233;27;19904;-60
2021/06/09 06:17:31;;;;;;;;;;;16.10;99.90;;;;;;5135903;27;19921;-60
2021/06/09 06:19:57;;;;;;;;;;;16.30;99.90;;;;;;5136463;27;19907;-60
2021/06/09 06:22:22;;;;;;;;;;;16.30;99.90;;;;;;5117042;27;19926;-60
2021/06/09 06:24:49;;;;;;;;;;;16.40;99.90;;;;;;5135018;27;20356;-60
2021/06/09 06:27:15;;;;;;;;;;;16.40;99.90;;;;;;5134415;27;19911;-60
2021/06/09 06:29:43;;;;;;;;;;;16.50;99.90;;;;;;5115056;27;19903;-59
2021/06/09 06:32:10;;;;;;;;;;;16.70;99.90;;;;;;5101314;28;19919;-60
2021/06/09 06:34:41;;;;;;;;;;;16.80;99.90;;;;;;5141478;27;19915;-59
2021/06/09 06:37:07;;;;;;;;;;;16.90;99.90;;;;;;5145706;27;19930;-59
2021/06/09 06:39:33;;;;;;;;;;;16.90;99.90;;;;;;5143128;27;19915;-59
2021/06/09 06:41:59;;;;;;;;;;;16.80;99.90;;;;;;5142532;27;19923;-60
2021/06/09 06:44:25;;;;;;;;;;;16.90;99.90;;;;;;5123454;27;19907;-60
2021/06/09 06:46:51;;;;;;;;;;;17.00;99.90;;;;;;5126123;27;19914;-59
2021/06/09 06:49:17;;;;;;;;;;;17.20;99.90;;;;;;5144221;27;20275;-60
2021/06/09 06:51:43;;;;;;;;;;;17.30;99.90;;;;;;5127216;27;19938;-61
2021/06/09 06:54:09;;;;;;;10.40;5.30;;;17.30;99.90;;;;;;5122991;27;20883;-60
2021/06/09 06:56:35;;;;;;;7.68;5.07;;;17.30;99.90;;;;;;5143773;27;20183;-60
2021/06/09 06:59:01;;;;;;;;;;;17.30;99.90;;;;;;5144350;27;20034;-60
2021/06/09 07:01:28;;;;;;;;;;;17.40;99.90;;;;;;5110773;27;19907;-60
2021/06/09 07:03:54;;;;;;;;;;;17.40;99.90;;;;;;5122635;27;19938;-61
2021/06/09 07:06:20;;;;;;;;;;;17.30;99.90;;;;;;5122561;27;20352;-60
2021/06/09 07:08:47;;;;;;;;;;;17.20;99.90;;;;;;5120678;27;19915;-61
2021/06/09 07:11:13;;;;;;;;;;;17.40;99.90;;;;;;5114104;27;20267;-60
2021/06/09 07:13:39;;;;;;;;;;;17.50;99.90;;;;;;5134296;27;19907;-59
2021/06/09 07:16:05;;;;;;;;;;;17.70;99.90;;;;;;5115807;27;19907;-60
2021/06/09 07:18:31;;;;;;;;;;;17.70;99.90;;;;;;5116225;27;19907;-61
2021/06/09 07:20:57;;;;;;;;;;;17.70;99.90;;;;;;5133915;27;19930;-60
2021/06/09 07:23:23;;;;;;;;;;;17.70;99.90;;;;;;5114653;27;19907;-60
2021/06/09 07:25:51;;;;;;;;;;;17.70;99.90;;;;;;5134395;27;20267;-61
2021/06/09 07:28:18;;;;;;;;;;;17.80;99.90;;;;;;5134255;27;19922;-60
2021/06/09 07:30:44;;;;;;;;;;;17.90;99.90;;;;;;5134836;27;19915;-60
2021/06/09 07:33:10;;;;;;;;;;;18.00;99.90;;;;;;5134111;27;19911;-59
2021/06/09 07:35:36;;;;;;;;;;;17.80;99.50;;;;;;5134284;27;19911;-60
2021/06/09 07:38:03;;;;;;;;;;;17.70;99.90;;;;;;5134352;27;19912;-61
2021/06/09 07:40:31;;;;;;;;;;;17.60;99.80;;;;;;5133807;27;19915;-61
2021/06/09 07:42:58;;;;;;;;;;;17.50;99.60;;;;;;5116033;27;19908;-60
2021/06/09 07:45:24;;;;;;;;;;;17.50;99.90;;;;;;5132837;27;19933;-60
2021/06/09 07:47:50;;;;;;;;;;;17.70;99.90;;;;;;5115461;27;19919;-60
2021/06/09 07:50:22;;;;;;;;;;;18.00;99.90;;;;;;5115555;27;19907;-60
2021/06/09 07:52:48;;;;;;;;;;;18.20;99.10;;;;;;5108410;27;19908;-60
2021/06/09 07:55:14;;;;;;;;;;;18.40;98.90;;;;;;5113891;27;20299;-60
2021/06/09 07:57:40;;;;;;;;;;;18.50;98.20;;;;;;5133898;27;19972;-60
2021/06/09 08:00:07;;;;;;;;;;;18.50;97.70;;;;;;5133464;27;20264;-60
2021/06/09 08:02:35;;;;;;;;;;;18.60;97.20;;;;;;5133160;27;19915;-61
2021/06/09 08:05:05;;;;;;;10.73;3.95;;;18.80;97.60;;;;;;5132430;27;20642;-60
2021/06/09 08:07:30;;;;;;;;;;;18.90;97.00;;;;;;5129016;27;20052;-60
2021/06/09 08:09:56;;;;;;;;;;;18.90;97.00;;;;;;5133363;27;19907;-60
2021/06/09 08:12:22;;;;;;;;;;;19.10;97.70;;;;;;5114380;27;19914;-60
2021/06/09 08:14:48;;;;;;;;;;;19.30;95.50;;;;;;5115722;27;19930;-60
2021/06/09 08:17:14;;;;;;;;;;;19.30;96.10;;;;;;5132279;27;19922;-60
2021/06/09 08:19:40;;;;;;;;;;;19.20;95.90;;;;;;5106690;28;19934;-60
2021/06/09 08:22:06;;;;;;;;;;;19.10;95.60;;;;;;5114992;27;20382;-60
2021/06/09 08:24:32;;;;;;;;;;;19.10;96.00;;;;;;5132727;27;19948;-60
2021/06/09 08:27:04;;;;;;;;;;;19.20;95.60;;;;;;5130833;27;19915;-60
2021/06/09 08:29:30;;;;;;;;;;;19.20;96.00;;;;;;5133493;27;20299;-60
2021/06/09 08:31:56;;;;;;;;;;;19.50;96.20;;;;;;5133558;27;20351;-60
2021/06/09 08:34:22;;;;;;;;;;;19.80;93.70;;;;;;5133851;27;19912;-60
2021/06/09 08:36:49;;;;;;;;;;;20.30;92.80;;;;;;5115356;28;19910;-60
2021/06/09 08:39:15;;;;;;;;;;;20.70;91.50;;;;;;5133401;28;19907;-59
2021/06/09 08:41:43;;;;;;;;;;;20.80;91.60;;;;;;5133836;28;19927;-60
2021/06/09 08:44:09;;;;;;;10.73;3.10;;;21.30;91.40;;;;;;5132523;28;20901;-61
2021/06/09 08:46:36;;;;;;;6.78;3.00;;;21.50;89.50;;;;;;5133307;28;20180;-62
2021/06/09 08:49:03;;;;;;;5.95;2.67;;;22.00;85.50;;;;;;5132222;28;20566;-61
2021/06/09 08:51:33;;;;;;;18.40;3.20;;;22.50;83.90;;;;;;5114240;28;20195;-61
2021/06/09 08:54:00;;;;;;;32.67;4.75;;;22.80;85.20;;;;;;5132264;28;20198;-61
2021/06/09 08:56:26;;;;;;;102.88;12.48;;;22.80;81.30;;;;;;5114367;28;20179;-60
2021/06/09 08:58:53;;;;;;;93.80;9.57;;;22.80;82.10;;;;;;5131683;28;20183;-60
2021/06/09 09:01:19;;;;;;;74.93;6.88;;;22.80;81.80;;;;;;5113496;28;20176;-60
2021/06/09 09:03:47;;;;;;;43.88;5.35;;;22.40;79.40;;;;;;5132699;28;20179;-60
2021/06/09 09:06:13;;;;;;;15.93;3.38;;;21.70;79.20;;;;;;5132966;28;20631;-60
2021/06/09 09:08:39;;;;;;;6.72;3.25;;;22.00;82.00;;;;;;5131487;28;20218;-60
2021/06/09 09:11:05;;;;;;;8.32;3.10;;;22.50;80.90;;;;;;5132293;28;20620;-60
2021/06/09 09:13:32;;;;;;;15.10;4.45;;;22.50;80.20;;;;;;5113595;28;20188;-61
2021/06/09 09:15:58;;;;;;;8.35;2.70;;;23.30;80.10;;;;;;5132499;28;20164;-61
2021/06/09 09:18:37;;;;;;;5.57;2.55;;;23.00;75.10;;;;;;5132445;27;20198;-60
2021/06/09 09:21:03;;;;;;;11.10;2.63;;;22.50;76.70;;;;;;5133444;27;20187;-60
2021/06/09 09:23:30;;;;;;;5.95;2.60;;;22.30;78.10;;;;;;5133911;27;20172;-61
2021/06/09 09:25:57;;;;;;;4.18;2.40;;;23.30;77.40;;;;;;5136447;27;20624;-67
2021/06/09 09:28:23;;;;;;;5.05;1.98;;;23.80;74.60;;;;;;5136037;27;20216;-61
2021/06/09 09:30:49;;;;;;;20.25;2.80;;;24.50;72.70;;;;;;5135601;27;20168;-61
2021/06/09 09:33:17;;;;;;;5.78;1.92;;;24.90;66.80;;;;;;5113753;27;20208;-61
2021/06/09 09:35:45;;;;;;;13.48;2.17;;;24.00;68.20;;;;;;5136077;27;20168;-60
2021/06/09 09:38:24;;;;;;;8.30;2.25;;;24.50;71.10;;;;;;5117796;27;20552;-60
2021/06/09 09:41:06;;;;;;;7.72;2.38;;;24.80;69.50;;;;;;5127342;27;20215;-60
2021/06/09 09:43:48;;;;;;;7.88;2.50;;;24.70;69.80;;;;;;5135216;27;20587;-60
2021/06/09 09:46:30;;;;;;;54.67;3.53;;;24.20;66.10;;;;;;5135518;27;20171;-60
2021/06/09 09:49:12;;;;;;;5.70;2.13;;;23.70;70.10;;;;;;5119151;27;20202;-60
2021/06/09 09:51:44;;;;;;;4.33;2.00;;;23.10;69.40;;;;;;5134963;27;20176;-59
2021/06/09 09:54:11;;;;;;;12.00;2.05;;;22.50;69.90;;;;;;5135633;27;20184;-59
2021/06/09 09:56:40;;;;;;;6.13;2.03;;;22.70;69.80;;;;;;5134791;27;20176;-59
2021/06/09 09:59:08;;;;;;;7.30;2.40;;;22.80;67.60;;;;;;5135253;27;20176;-59
2021/06/09 10:01:38;;;;;;;4.72;1.75;;;22.90;69.00;;;;;;5128988;27;20546;-60
2021/06/09 10:04:06;;;;;;;7.78;2.50;;;23.10;68.80;;;;;;5135819;27;20517;-59
2021/06/09 10:06:33;;;;;;;;;;;23.10;66.90;;;;;;5121635;27;20050;-61
2021/06/09 10:09:19;;;;;;;;;;;22.30;66.50;;;;;;5138358;27;19919;-61
2021/06/09 10:11:45;;;;;;;;;;;22.60;70.30;;;;;;5122965;27;20276;-61
2021/06/09 10:14:36;;;;;;;;;;;23.20;69.90;;;;;;5140953;27;19911;-61
2021/06/09 10:17:08;;;;;;;;;;;23.80;70.60;;;;;;5132403;27;19911;-61
2021/06/09 10:19:35;;;;;;;;;;;24.80;68.60;;;;;;5141163;27;19907;-60
2021/06/09 10:22:04;;;;;;;;;;;25.00;67.00;;;;;;5140006;27;19918;-60
2021/06/09 10:24:30;;;;;;;;;;;24.50;66.50;;;;;;5114759;27;19903;-60
2021/06/09 10:26:59;;;;;;;;;;;24.30;65.90;;;;;;5135156;27;20276;-60
2021/06/09 10:29:28;;;;;;;;;;;24.20;66.10;;;;;;5115893;27;19919;-60
2021/06/09 10:31:58;;;;;;;;;;;24.90;66.20;;;;;;5137624;27;20279;-60
2021/06/09 10:34:25;;;;;;;;;;;24.40;64.90;;;;;;5143516;27;19915;-61
2021/06/09 10:36:51;;;;;;;;;;;23.80;67.30;;;;;;5143507;27;19918;-60
2021/06/09 10:39:17;;;;;;;;;;;24.00;67.40;;;;;;5138274;27;19907;-61
2021/06/09 10:41:44;;;;;;;;;;;23.70;67.80;;;;;;5138956;27;19931;-62
2021/06/09 10:44:11;;;;;;;;;;;24.00;66.40;;;;;;5139413;27;19916;-61
2021/06/09 10:46:42;;;;;;;;;;;23.80;66.10;;;;;;5139236;27;19912;-61
2021/06/09 10:49:08;;;;;;;;;;;23.70;65.70;;;;;;5121171;27;19915;-61
2021/06/09 10:51:34;;;;;;;;;;;23.80;64.10;;;;;;5124814;27;19912;-60
2021/06/09 10:54:02;;;;;;;;;;;23.20;64.80;;;;;;5145674;27;19963;-61
2021/06/09 10:56:28;;;;;;;;;;;23.00;66.10;;;;;;5140541;27;19914;-61
2021/06/09 10:58:54;;;;;;;;;;;23.70;66.60;;;;;;5134219;27;20274;-60
2021/06/09 11:01:21;;;;;;;;;;;23.20;67.20;;;;;;5128541;27;19915;-60
2021/06/09 11:03:47;;;;;;;;;;;22.90;66.60;;;;;;5134729;27;19911;-59
2021/06/09 11:06:13;;;;;;;;;;;23.10;68.30;;;;;;5116235;27;19930;-60
2021/06/09 11:08:39;;;;;;;;;;;22.10;68.60;;;;;;5097655;27;19923;-61
2021/06/09 11:11:19;;;;;;;;;;;22.10;71.70;;;;;;5133326;27;19907;-61
2021/06/09 11:13:47;;;;;;;;;;;22.50;70.10;;;;;;5137998;27;19907;-59
2021/06/09 11:16:17;;;;;;;;;;;22.50;67.60;;;;;;5138256;27;19911;-59
2021/06/09 11:18:44;;;;;;;;;;;22.30;68.80;;;;;;5138236;27;19911;-59
2021/06/09 11:21:16;;;;;;;;;;;22.70;69.40;;;;;;5137919;27;19912;-60
2021/06/09 11:23:43;;;;;;;;;;;22.90;67.60;;;;;;5134665;27;19907;-60
2021/06/09 11:26:24;;;;;;;;;;;22.80;66.80;;;;;;5135127;27;19903;-59
2021/06/09 11:28:51;;;;;;;;;;;22.80;65.00;;;;;;5135105;27;19938;-59
2021/06/09 11:31:26;;;;;;;;;;;22.70;65.80;;;;;;5116574;27;19903;-60
2021/06/09 11:33:56;;;;;;;;;;;22.90;66.70;;;;;;5135081;27;19915;-60
2021/06/09 11:36:22;;;;;;;;;;;23.00;66.70;;;;;;5134793;27;20275;-60
2021/06/09 11:38:52;;;;;;;;;;;23.10;64.80;;;;;;5134342;27;19903;-60
2021/06/09 11:41:28;;;;;;;;;;;22.90;64.10;;;;;;5134643;27;19915;-60
2021/06/09 11:43:55;;;;;;;;;;;22.70;63.50;;;;;;5115630;27;19911;-60
2021/06/09 11:46:25;;;;;;;;;;;22.60;64.70;;;;;;5134419;27;19907;-61
2021/06/09 11:48:51;;;;;;;;;;;22.60;64.50;;;;;;5133093;27;19911;-61
2021/06/09 11:51:17;;;;;;;;;;;22.40;66.20;;;;;;5134487;27;19953;-61
2021/06/09 11:53:44;;;;;;;;;;;21.90;64.90;;;;;;5134028;27;20306;-61
2021/06/09 11:56:14;;;;;;;9.73;2.05;;;21.90;69.00;;;;;;5115539;27;20190;-61
2021/06/09 11:58:40;;;;;;;7.47;2.10;;;21.60;68.30;;;;;;5134425;27;20183;-61
2021/06/09 12:01:11;;;;;;;10.75;2.10;;;21.90;70.00;;;;;;5134250;27;20187;-61
2021/06/09 12:03:37;;;;;;;9.32;2.65;;;22.20;69.90;;;;;;5136585;27;20171;-61
2021/06/09 12:06:29;;;;;;;6.47;2.17;;;22.50;67.60;;;;;;5151070;27;20206;-61
2021/06/09 12:08:55;;;;;;;5.18;2.13;;;22.10;68.70;;;;;;5108242;27;20216;-60
2021/06/09 12:11:22;;;;;;;8.07;2.78;;;21.70;69.00;;;;;;5146726;27;20367;-61
2021/06/09 12:13:48;;;;;;;8.35;2.55;;;21.70;70.20;;;;;;5116426;27;20851;-61
2021/06/09 12:16:17;;;;;;;382.15;17.15;;;21.20;71.90;;;;;;5135130;27;20369;-60
2021/06/09 12:18:44;;;;;;;66.23;5.03;;;21.20;77.40;;;;;;5114439;27;20370;-61
2021/06/09 12:21:12;;;;;;;7.88;2.42;;;21.30;75.10;;;;;;5132639;27;20369;-61
2021/06/09 12:23:53;;;;;;;6.75;2.40;;;21.60;75.00;;;;;;5139934;27;20428;-60
2021/06/09 12:26:19;;;;;;;11.35;2.60;;;21.70;73.00;;;;;;5114155;27;20385;-61
2021/06/09 12:28:45;;;;;;;10.87;2.50;;;21.80;73.40;;;;;;5131704;27;20408;-60
2021/06/09 12:31:11;;;;;;;7.63;2.70;;;21.50;73.00;;;;;;5131474;27;20376;-60
2021/06/09 12:33:41;;;;;;;8.15;2.55;;;21.30;73.00;;;;;;5131829;27;20408;-60
2021/06/09 12:36:12;;;;;;;8.00;2.60;;;21.20;75.60;;;;;;5143882;27;20382;-61
2021/06/09 12:38:38;;;;;;;7.95;2.45;;;21.10;76.20;;;;;;5131547;27;20385;-60
2021/06/09 12:41:05;;;;;;;197.07;11.45;;;21.50;77.20;;;;;;5140564;27;20410;-62
2021/06/09 12:43:31;;;;;;;19.25;2.85;;;21.50;74.70;;;;;;5136924;27;20395;-60
2021/06/09 12:45:58;;;;;;;7.07;2.40;;;21.40;73.60;;;;;;5134646;27;20385;-60
2021/06/09 12:48:26;;;;;;;12.00;3.60;;;21.60;73.30;;;;;;5131567;28;20405;-61
2021/06/09 12:50:54;;;;;;;8.43;2.50;;;21.50;74.60;;;;;;5131882;28;20373;-61
2021/06/09 12:53:24;;;;;;;7.43;2.17;;;21.20;74.80;;;;;;5131450;28;20381;-61
2021/06/09 12:56:11;;;;;;;7.50;2.55;;;21.20;76.60;;;;;;5132942;27;20740;-59
2021/06/09 12:58:37;;;;;;;9.15;2.80;;;21.40;76.10;;;;;;5135057;27;20393;-60
2021/06/09 13:01:05;;;;;;;9.18;3.20;;;21.30;75.50;;;;;;5135866;27;20737;-61
2021/06/09 13:03:46;;;;;;;7.03;2.75;;;21.10;73.60;;;;;;5136117;27;20397;-62
2021/06/09 13:06:16;;;;;;;27.70;3.58;;;20.90;76.40;;;;;;5134642;27;20393;-61
2021/06/09 13:09:03;;;;;;;7.68;2.70;;;20.70;77.00;;;;;;5132020;27;20903;-60
2021/06/09 13:11:30;;;;;;;8.57;2.70;;;20.60;77.00;;;;;;5121595;27;20380;-60
2021/06/09 13:14:04;;;;;;;10.03;2.70;;;20.50;78.90;;;;;;5127460;27;20404;-60
2021/06/09 13:16:35;;;;;;;10.05;2.60;;;20.50;74.80;;;;;;5134741;27;20396;-60
2021/06/09 13:19:06;;;;;;;8.80;2.60;;;20.50;78.10;;;;;;5135588;27;20389;-60